createdAt,value
2017-06-17T00:01:24.677Z,83.00
2017-06-17T00:03:53.943Z,83.30
2017-06-17T00:06:22.790Z,83.50
2017-06-17T00:08:51.350Z,83.30
2017-06-17T00:11:20.022Z,83.60
2017-06-17T00:13:48.510Z,83.90
2017-06-17T00:16:17.229Z,84.00
2017-06-17T00:18:46.512Z,83.80
2017-06-17T00:21:15.018Z,84.40
2017-06-17T00:23:45.072Z,83.60
2017-06-17T00:26:13.595Z,83.60
2017-06-17T00:28:42.257Z,83.70
2017-06-17T00:31:10.967Z,84.00
2017-06-17T00:33:39.472Z,83.80
2017-06-17T00:36:08.774Z,84.50
2017-06-17T00:38:38.263Z,84.30
2017-06-17T00:41:07.725Z,84.80
2017-06-17T00:43:36.211Z,84.60
2017-06-17T00:46:05.343Z,84.80
2017-06-17T00:48:33.823Z,84.70
2017-06-17T00:51:02.461Z,84.20
2017-06-17T00:53:30.973Z,83.90
2017-06-17T00:55:59.498Z,83.80
2017-06-17T00:58:28.779Z,83.70
2017-06-17T01:00:57.693Z,83.60
2017-06-17T01:03:30.221Z,83.80
2017-06-17T01:05:58.744Z,83.60
2017-06-17T01:08:28.653Z,83.80
2017-06-17T01:10:57.900Z,84.80
2017-06-17T01:13:26.454Z,84.10
2017-06-17T01:15:55.760Z,84.40
2017-06-17T01:18:25.056Z,84.50
2017-06-17T01:20:54.521Z,84.80
2017-06-17T01:23:22.990Z,84.60
2017-06-17T01:25:51.489Z,84.50
2017-06-17T01:28:19.966Z,84.30
2017-06-17T01:30:48.473Z,84.40
2017-06-17T01:33:17.437Z,84.90
2017-06-17T01:35:45.999Z,84.90
2017-06-17T01:38:14.502Z,85.10
2017-06-17T01:40:43.514Z,85.20
2017-06-17T01:43:12.197Z,85.40
2017-06-17T01:45:40.820Z,85.30
2017-06-17T01:48:10.287Z,85.80
2017-06-17T01:50:38.993Z,85.60
2017-06-17T01:53:07.547Z,86.00
2017-06-17T01:55:36.158Z,86.20
2017-06-17T01:58:06.306Z,86.20
2017-06-17T02:00:35.537Z,86.80
2017-06-17T02:03:04.080Z,86.80
2017-06-17T02:05:33.597Z,87.20
2017-06-17T02:08:02.898Z,87.40
2017-06-17T02:10:32.180Z,87.30
2017-06-17T02:13:00.817Z,87.20
2017-06-17T02:15:29.761Z,87.70
2017-06-17T02:17:58.464Z,87.80
2017-06-17T02:20:29.026Z,88.40
2017-06-17T02:22:57.636Z,88.40
2017-06-17T02:25:26.111Z,88.60
2017-06-17T02:27:54.629Z,88.50
2017-06-17T02:30:23.334Z,88.60
2017-06-17T02:32:52.568Z,88.70
2017-06-17T02:35:21.119Z,88.70
2017-06-17T02:37:50.994Z,89.00
2017-06-17T02:40:19.662Z,88.90
2017-06-17T02:42:48.228Z,89.20
2017-06-17T02:45:16.926Z,89.40
2017-06-17T02:47:45.382Z,89.20
2017-06-17T02:50:13.878Z,89.50
2017-06-17T02:52:42.489Z,89.60
2017-06-17T02:55:11.443Z,89.40
2017-06-17T02:57:40.121Z,89.30
2017-06-17T03:00:09.373Z,89.90
2017-06-17T03:02:37.897Z,89.90
2017-06-17T03:05:07.208Z,90.00
2017-06-17T03:07:36.409Z,90.00
2017-06-17T03:10:05.530Z,90.00
2017-06-17T03:12:34.030Z,90.10
2017-06-17T03:15:02.544Z,90.10
2017-06-17T03:17:31.206Z,89.90
2017-06-17T03:19:59.698Z,89.70
2017-06-17T03:22:28.199Z,89.80
2017-06-17T03:24:56.683Z,89.90
2017-06-17T03:27:25.393Z,89.10
2017-06-17T03:29:54.692Z,90.20
2017-06-17T03:32:24.564Z,89.30
2017-06-17T03:34:53.091Z,89.30
2017-06-17T03:37:22.348Z,88.90
2017-06-17T03:39:50.874Z,88.90
2017-06-17T03:42:20.152Z,89.00
2017-06-17T03:44:48.868Z,88.90
2017-06-17T03:47:18.135Z,88.90
2017-06-17T03:49:46.614Z,88.80
2017-06-17T03:52:15.715Z,88.60
2017-06-17T03:54:44.433Z,88.60
2017-06-17T03:57:13.695Z,89.50
2017-06-17T03:59:42.402Z,88.70
2017-06-17T04:02:10.905Z,88.20
2017-06-17T04:04:39.774Z,88.20
2017-06-17T04:07:08.254Z,88.20
2017-06-17T04:09:36.759Z,88.80
2017-06-17T04:12:06.651Z,87.70
2017-06-17T04:14:35.160Z,87.60
2017-06-17T04:17:03.773Z,87.70
2017-06-17T04:19:32.296Z,87.50
2017-06-17T04:22:00.847Z,87.00
2017-06-17T04:24:29.358Z,87.20
2017-06-17T04:26:58.322Z,87.20
2017-06-17T04:29:26.794Z,87.00
2017-06-17T04:31:56.150Z,86.90
2017-06-17T04:34:24.643Z,87.20
2017-06-17T04:36:53.129Z,86.50
2017-06-17T04:39:22.439Z,85.50
2017-06-17T04:41:51.741Z,85.50
2017-06-17T04:44:21.554Z,85.60
2017-06-17T04:46:50.119Z,85.50
2017-06-17T04:49:19.031Z,85.50
2017-06-17T04:51:48.278Z,84.10
2017-06-17T04:54:16.790Z,84.00
2017-06-17T04:56:45.477Z,83.00
2017-06-17T04:59:13.983Z,82.10
2017-06-17T05:01:43.226Z,78.80
2017-06-17T05:04:12.949Z,78.80
2017-06-17T05:06:41.445Z,78.40
2017-06-17T05:09:09.961Z,76.90
2017-06-17T05:11:39.831Z,74.60
2017-06-17T05:14:08.565Z,74.60
2017-06-17T05:16:37.818Z,72.90
2017-06-17T05:19:06.525Z,72.80
2017-06-17T05:21:35.183Z,71.50
2017-06-17T05:24:03.731Z,70.00
2017-06-17T05:26:32.465Z,68.60
2017-06-17T05:29:01.155Z,69.90
2017-06-17T05:31:31.053Z,68.80
2017-06-17T05:33:59.573Z,66.80
2017-06-17T05:36:28.094Z,65.60
2017-06-17T05:38:56.665Z,67.30
2017-06-17T05:41:25.902Z,69.50
2017-06-17T05:43:54.449Z,69.50
2017-06-17T05:46:24.323Z,71.00
2017-06-17T05:48:53.054Z,71.00
2017-06-17T05:51:22.547Z,72.40
2017-06-17T05:53:51.028Z,72.40
2017-06-17T05:56:21.654Z,73.60
2017-06-17T05:58:50.154Z,73.60
2017-06-17T06:01:18.693Z,74.00
2017-06-17T06:03:48.165Z,73.70
2017-06-17T06:06:16.938Z,75.00
2017-06-17T06:08:46.177Z,74.70
2017-06-17T06:11:14.658Z,74.70
2017-06-17T06:13:43.823Z,74.70
2017-06-17T06:16:13.122Z,74.30
2017-06-17T06:18:42.473Z,73.40
2017-06-17T06:21:11.315Z,73.40
2017-06-17T06:23:40.666Z,72.50
2017-06-17T06:26:09.204Z,72.50
2017-06-17T06:28:37.935Z,73.50
2017-06-17T06:31:06.605Z,72.20
2017-06-17T06:33:35.286Z,72.20
2017-06-17T06:36:03.820Z,71.80
2017-06-17T06:38:32.926Z,70.30
2017-06-17T06:41:09.182Z,70.20
2017-06-17T06:43:37.709Z,70.20
2017-06-17T06:46:06.379Z,69.30
2017-06-17T06:48:35.093Z,68.30
2017-06-17T06:51:04.178Z,68.00
2017-06-17T06:53:32.774Z,68.40
2017-06-17T06:56:01.332Z,67.70
2017-06-17T06:58:30.629Z,67.10
2017-06-17T07:00:59.898Z,68.50
2017-06-17T07:03:28.377Z,68.40
2017-06-17T07:05:57.086Z,68.00
2017-06-17T07:08:26.450Z,62.70
2017-06-17T07:10:55.070Z,61.70
2017-06-17T07:13:24.786Z,61.60
2017-06-17T07:15:54.238Z,63.00
2017-06-17T07:18:24.123Z,62.80
2017-06-17T07:20:53.420Z,62.20
2017-06-17T07:23:22.724Z,63.40
2017-06-17T07:25:52.127Z,62.20
2017-06-17T07:28:21.098Z,62.10
2017-06-17T07:30:49.821Z,62.80
2017-06-17T07:33:18.329Z,64.00
2017-06-17T07:35:47.034Z,63.10
2017-06-17T07:38:15.664Z,61.30
2017-06-17T07:40:45.528Z,56.50
2017-06-17T07:43:14.177Z,56.30
2017-06-17T07:45:43.139Z,53.80
2017-06-17T07:48:11.795Z,53.90
2017-06-17T07:50:40.318Z,52.20
2017-06-17T07:53:09.634Z,48.60
2017-06-17T07:55:38.916Z,50.50
2017-06-17T07:58:08.014Z,50.30
2017-06-17T08:00:37.536Z,52.60
2017-06-17T08:03:07.570Z,49.50
2017-06-17T08:05:36.122Z,49.20
2017-06-17T08:08:05.644Z,50.00
2017-06-17T08:10:35.110Z,47.30
2017-06-17T08:13:03.778Z,47.20
2017-06-17T08:15:32.778Z,47.40
2017-06-17T08:18:01.511Z,45.70
2017-06-17T08:20:30.065Z,44.50
2017-06-17T08:22:59.540Z,45.30
2017-06-17T08:25:28.797Z,48.90
2017-06-17T08:27:58.450Z,45.50
2017-06-17T08:30:26.971Z,45.40
2017-06-17T08:32:55.690Z,47.30
2017-06-17T08:35:25.552Z,44.60
2017-06-17T08:37:54.280Z,44.30
2017-06-17T08:40:23.598Z,43.30
2017-06-17T08:42:52.280Z,43.20
2017-06-17T08:45:21.741Z,43.20
2017-06-17T08:47:51.050Z,43.20
2017-06-17T08:50:20.246Z,43.90
2017-06-17T08:52:48.817Z,45.40
2017-06-17T08:55:17.556Z,46.80
2017-06-17T08:57:46.917Z,43.00
2017-06-17T09:00:15.752Z,43.00
2017-06-17T09:02:44.137Z,44.50
2017-06-17T09:05:12.086Z,44.10
2017-06-17T09:07:41.403Z,46.70
2017-06-17T09:10:10.960Z,48.40
2017-06-17T09:12:39.818Z,48.40
2017-06-17T09:15:09.715Z,48.90
2017-06-17T09:17:39.203Z,45.10
2017-06-17T09:20:08.123Z,45.00
2017-06-17T09:22:36.774Z,44.20
2017-06-17T09:25:05.653Z,46.10
2017-06-17T09:27:34.150Z,44.00
2017-06-17T09:30:02.861Z,43.50
2017-06-17T09:32:32.585Z,44.60
2017-06-17T09:35:02.079Z,44.60
2017-06-17T09:37:31.380Z,44.40
2017-06-17T09:40:00.645Z,44.90
2017-06-17T09:42:29.315Z,44.70
2017-06-17T09:44:57.830Z,43.80
2017-06-17T09:47:26.515Z,45.00
2017-06-17T09:49:55.003Z,43.80
2017-06-17T09:52:24.181Z,42.80
2017-06-17T09:54:52.972Z,43.80
2017-06-17T09:57:21.577Z,42.70
2017-06-17T09:59:50.157Z,42.90
2017-06-17T10:02:19.681Z,43.90
2017-06-17T10:04:48.966Z,44.10
2017-06-17T10:07:17.607Z,44.80
2017-06-17T10:09:45.528Z,43.60
2017-06-17T10:12:15.406Z,41.90
2017-06-17T10:14:43.505Z,41.90
2017-06-17T10:17:12.213Z,41.70
2017-06-17T10:19:41.511Z,43.90
2017-06-17T10:22:10.778Z,43.50
2017-06-17T10:24:39.358Z,43.40
2017-06-17T10:27:07.873Z,42.90
2017-06-17T10:29:36.390Z,43.80
2017-06-17T10:32:05.152Z,42.50
2017-06-17T10:34:35.029Z,43.10
2017-06-17T10:37:03.845Z,43.00
2017-06-17T10:39:33.138Z,40.30
2017-06-17T10:42:01.823Z,40.20
2017-06-17T10:44:30.780Z,40.10
2017-06-17T10:47:01.864Z,37.90
2017-06-17T10:49:29.801Z,36.40
2017-06-17T10:51:58.176Z,36.60
2017-06-17T10:54:27.875Z,37.30
2017-06-17T10:56:55.775Z,37.10
2017-06-17T10:59:23.935Z,36.20
2017-06-17T11:01:52.775Z,36.00
2017-06-17T11:04:22.020Z,38.20
2017-06-17T11:06:50.967Z,37.50
2017-06-17T11:09:20.440Z,38.00
2017-06-17T11:11:48.730Z,37.90
2017-06-17T11:14:16.989Z,39.60
2017-06-17T11:16:44.893Z,37.20
2017-06-17T11:19:13.861Z,37.10
2017-06-17T11:21:42.065Z,37.50
2017-06-17T11:24:10.749Z,35.60
2017-06-17T11:26:39.386Z,35.70
2017-06-17T11:29:07.279Z,35.50
2017-06-17T11:31:35.355Z,34.60
2017-06-17T11:34:09.162Z,35.90
2017-06-17T11:36:37.402Z,34.50
2017-06-17T11:39:06.044Z,33.70
2017-06-17T11:41:34.714Z,36.40
2017-06-17T11:44:02.804Z,35.70
2017-06-17T11:46:30.774Z,37.10
2017-06-17T11:48:59.446Z,36.10
2017-06-17T11:51:27.515Z,36.20
2017-06-17T11:53:55.811Z,34.60
2017-06-17T11:56:24.887Z,34.00
2017-06-17T11:58:53.489Z,33.90
2017-06-17T12:01:22.491Z,34.40
2017-06-17T12:03:51.143Z,36.60
2017-06-17T12:06:19.401Z,36.60
2017-06-17T12:08:47.690Z,36.80
2017-06-17T12:11:15.806Z,38.70
2017-06-17T12:13:43.933Z,39.00
2017-06-17T12:16:12.088Z,36.90
2017-06-17T12:18:40.046Z,38.20
2017-06-17T12:21:08.045Z,36.00
2017-06-17T12:23:36.570Z,36.90
2017-06-17T12:26:05.462Z,35.60
2017-06-17T12:28:34.127Z,36.40
2017-06-17T12:31:02.789Z,36.40
2017-06-17T12:33:30.701Z,37.90
2017-06-17T12:35:59.355Z,38.20
2017-06-17T12:38:27.284Z,38.20
2017-06-17T12:40:55.681Z,36.90
2017-06-17T12:43:23.814Z,37.40
2017-06-17T12:45:54.346Z,35.80
2017-06-17T12:48:31.956Z,35.90
2017-06-17T12:51:00.113Z,35.90
2017-06-17T12:53:28.797Z,37.90
2017-06-17T12:55:57.694Z,36.90
2017-06-17T12:58:26.807Z,38.60
2017-06-17T13:00:54.718Z,38.50
2017-06-17T13:03:22.682Z,37.50
2017-06-17T13:05:51.355Z,36.60
2017-06-17T13:10:56.766Z,36.00
2017-06-17T13:13:25.641Z,37.40
2017-06-17T13:15:55.223Z,37.30
2017-06-17T13:18:23.655Z,38.80
2017-06-17T13:20:52.906Z,38.20
2017-06-17T13:23:21.398Z,38.10
2017-06-17T13:25:50.109Z,39.60
2017-06-17T13:28:18.770Z,39.60
2017-06-17T13:30:47.497Z,42.10
2017-06-17T13:33:16.792Z,42.00
2017-06-17T13:35:46.045Z,44.70
2017-06-17T13:38:14.785Z,44.80
2017-06-17T13:40:44.292Z,43.60
2017-06-17T13:43:14.150Z,44.00
2017-06-17T13:45:42.881Z,43.90
2017-06-17T13:48:12.346Z,45.80
2017-06-17T13:50:41.090Z,45.90
2017-06-17T13:53:10.599Z,47.00
2017-06-17T13:55:40.031Z,46.90
2017-06-17T13:58:08.769Z,46.90
2017-06-17T14:00:38.690Z,46.90
2017-06-17T14:03:07.774Z,47.60
2017-06-17T14:05:36.327Z,48.60
2017-06-17T14:08:06.164Z,51.40
2017-06-17T14:10:34.719Z,51.90
2017-06-17T14:13:03.640Z,51.70
2017-06-17T14:15:32.449Z,50.00
2017-06-17T14:18:01.766Z,48.80
2017-06-17T14:20:31.688Z,50.70
2017-06-17T14:23:00.525Z,50.60
2017-06-17T14:25:29.547Z,50.50
2017-06-17T14:27:58.153Z,50.50
2017-06-17T14:30:27.681Z,52.50
2017-06-17T14:32:56.386Z,51.60
2017-06-17T14:35:25.196Z,51.00
2017-06-17T14:37:54.186Z,53.60
2017-06-17T14:40:22.929Z,52.10
2017-06-17T14:42:51.638Z,53.30
2017-06-17T14:45:20.396Z,53.20
2017-06-17T14:47:49.824Z,52.90
2017-06-17T14:50:18.835Z,52.90
2017-06-17T14:52:47.437Z,54.50
2017-06-17T14:55:16.063Z,54.50
2017-06-17T14:57:49.964Z,55.40
2017-06-17T15:00:23.639Z,55.20
2017-06-17T15:02:52.524Z,55.70
2017-06-17T15:05:21.417Z,56.50
2017-06-17T15:07:50.851Z,57.10
2017-06-17T15:10:20.372Z,55.60
2017-06-17T15:12:50.519Z,55.70
2017-06-17T15:15:19.596Z,56.30
2017-06-17T15:17:51.348Z,56.10
2017-06-17T15:20:21.737Z,57.70
2017-06-17T15:22:50.602Z,57.70
2017-06-17T15:25:19.562Z,56.70
2017-06-17T15:27:49.453Z,57.90
2017-06-17T15:30:18.149Z,58.40
2017-06-17T15:32:46.727Z,57.00
2017-06-17T15:35:15.582Z,56.80
2017-06-17T15:37:44.412Z,55.10
2017-06-17T15:40:13.693Z,54.40
2017-06-17T15:42:42.426Z,54.40
2017-06-17T15:45:11.054Z,55.90
2017-06-17T15:47:39.771Z,57.20
2017-06-17T15:50:08.648Z,56.70
2017-06-17T15:52:37.241Z,57.30
2017-06-17T15:55:07.041Z,57.50
2017-06-17T15:57:35.767Z,58.00
2017-06-17T16:00:05.127Z,60.80
2017-06-17T16:02:34.605Z,60.60
2017-06-17T16:05:03.223Z,59.90
2017-06-17T16:07:31.738Z,60.10
2017-06-17T16:10:01.177Z,59.20
2017-06-17T16:12:30.709Z,59.20
2017-06-17T16:14:59.445Z,58.50
2017-06-17T16:17:28.898Z,59.70
2017-06-17T16:19:57.425Z,59.50
2017-06-17T16:22:25.962Z,61.00
2017-06-17T16:24:54.485Z,61.40
2017-06-17T16:27:24.219Z,61.50
2017-06-17T16:29:52.798Z,61.40
2017-06-17T16:32:22.094Z,62.10
2017-06-17T16:34:51.578Z,62.60
2017-06-17T16:37:20.090Z,62.40
2017-06-17T16:39:48.653Z,62.10
2017-06-17T16:42:17.146Z,63.60
2017-06-17T16:44:46.678Z,64.30
2017-06-17T16:47:15.191Z,64.30
2017-06-17T16:49:43.706Z,65.10
2017-06-17T16:52:12.229Z,66.40
2017-06-17T16:54:41.201Z,66.10
2017-06-17T16:57:11.089Z,68.00
2017-06-17T16:59:39.665Z,68.40
2017-06-17T17:02:08.170Z,67.70
2017-06-17T17:04:36.742Z,68.10
2017-06-17T17:07:05.300Z,69.00
2017-06-17T17:09:34.551Z,68.00
2017-06-17T17:12:04.038Z,69.40
2017-06-17T17:14:32.730Z,69.30
2017-06-17T17:17:01.314Z,70.10
2017-06-17T17:19:29.783Z,70.80
2017-06-17T17:21:58.326Z,71.80
2017-06-17T17:24:27.426Z,70.90
2017-06-17T17:26:55.986Z,70.50
2017-06-17T17:29:24.621Z,69.70
2017-06-17T17:31:53.166Z,71.20
2017-06-17T17:34:22.298Z,71.50
2017-06-17T17:36:50.873Z,70.80
2017-06-17T17:39:19.409Z,70.90
2017-06-17T17:41:48.893Z,70.30
2017-06-17T17:44:18.014Z,70.30
2017-06-17T17:46:47.402Z,71.00
2017-06-17T17:49:15.977Z,71.00
2017-06-17T17:51:45.262Z,70.60
2017-06-17T17:54:14.355Z,70.20
2017-06-17T17:56:42.830Z,70.20
2017-06-17T17:59:11.466Z,70.80
2017-06-17T18:01:40.818Z,70.90
2017-06-17T18:04:10.078Z,71.10
2017-06-17T18:06:38.739Z,70.40
2017-06-17T18:09:07.261Z,70.70
2017-06-17T18:11:36.279Z,71.80
2017-06-17T18:14:05.022Z,71.50
2017-06-17T18:16:34.252Z,70.30
2017-06-17T18:19:03.070Z,70.30
2017-06-17T18:21:31.702Z,70.10
2017-06-17T18:24:00.851Z,70.80
2017-06-17T18:26:29.339Z,71.60
2017-06-17T18:28:58.069Z,71.00
2017-06-17T18:31:27.523Z,71.20
2017-06-17T18:33:56.021Z,71.10
2017-06-17T18:36:26.125Z,71.50
2017-06-17T18:38:54.816Z,71.10
2017-06-17T18:41:23.701Z,71.20
2017-06-17T18:43:52.294Z,71.30
2017-06-17T18:46:21.180Z,71.60
2017-06-17T18:48:50.384Z,71.80
2017-06-17T18:51:18.866Z,72.60
2017-06-17T18:53:47.397Z,73.20
2017-06-17T18:56:17.310Z,74.10
2017-06-17T18:58:46.782Z,74.30
2017-06-17T19:01:15.709Z,74.30
2017-06-17T19:03:45.227Z,75.70
2017-06-17T19:06:13.881Z,75.60
2017-06-17T19:08:42.568Z,75.60
2017-06-17T19:11:11.276Z,75.30
2017-06-17T19:13:40.565Z,76.20
2017-06-17T19:16:09.972Z,75.60
2017-06-17T19:18:39.180Z,75.50
2017-06-17T19:21:08.687Z,76.80
2017-06-17T19:23:38.194Z,76.90
2017-06-17T19:26:07.966Z,77.30
2017-06-17T19:28:37.648Z,77.30
2017-06-17T19:31:06.717Z,77.70
2017-06-17T19:33:35.999Z,78.10
2017-06-17T19:36:05.250Z,78.10
2017-06-17T19:38:34.053Z,77.90
2017-06-17T19:41:02.791Z,78.30
2017-06-17T19:43:31.354Z,78.70
2017-06-17T19:45:59.894Z,78.80
2017-06-17T19:48:28.461Z,79.10
2017-06-17T19:50:57.212Z,79.30
2017-06-17T19:53:25.816Z,79.60
2017-06-17T19:55:54.331Z,80.40
2017-06-17T19:58:23.293Z,80.50
2017-06-17T20:00:52.748Z,81.00
2017-06-17T20:03:21.465Z,80.90
2017-06-17T20:05:49.986Z,81.60
2017-06-17T20:08:18.551Z,81.60
2017-06-17T20:10:47.344Z,82.20
2017-06-17T20:13:16.629Z,82.80
2017-06-17T20:15:46.109Z,83.30
2017-06-17T20:18:15.244Z,83.30
2017-06-17T20:20:49.217Z,84.30
2017-06-17T20:23:19.054Z,84.20
2017-06-17T20:25:47.609Z,84.90
2017-06-17T20:28:16.550Z,85.60
2017-06-17T20:30:46.005Z,85.80
2017-06-17T20:33:14.530Z,85.80
2017-06-17T20:35:43.166Z,86.00
2017-06-17T20:38:12.197Z,86.00
2017-06-17T20:40:40.761Z,87.40
2017-06-17T20:43:09.500Z,86.70
2017-06-17T20:45:38.275Z,86.90
2017-06-17T20:48:06.928Z,87.20
2017-06-17T21:03:51.332Z,87.20
2017-06-17T21:06:19.918Z,87.80
2017-06-17T21:08:48.691Z,87.80
2017-06-17T21:11:18.819Z,87.70
2017-06-17T21:13:48.369Z,87.70
2017-06-17T21:16:16.946Z,88.20
2017-06-17T21:18:46.341Z,88.20
2017-06-17T21:21:15.192Z,88.00
2017-06-17T21:23:44.938Z,87.90
2017-06-17T21:26:13.464Z,87.80
2017-06-17T21:28:42.058Z,87.70
2017-06-17T21:31:10.675Z,88.00
2017-06-17T21:33:39.200Z,87.70
2017-06-17T21:36:07.888Z,87.80
2017-06-17T21:38:36.434Z,87.90
2017-06-17T21:41:05.110Z,87.80
2017-06-17T21:43:33.805Z,87.50
2017-06-17T21:46:02.355Z,87.20
2017-06-17T21:48:31.419Z,87.20
2017-06-17T21:50:59.924Z,87.60
2017-06-17T21:53:40.850Z,87.30
2017-06-17T21:56:09.393Z,87.80
2017-06-17T21:58:38.209Z,88.00
2017-06-17T22:01:06.745Z,88.20
2017-06-17T22:03:35.278Z,87.50
2017-06-17T22:06:08.450Z,87.50
2017-06-17T22:08:37.182Z,87.10
2017-06-17T22:11:05.843Z,86.70
2017-06-17T22:13:34.396Z,87.40
2017-06-17T22:16:02.914Z,87.60
2017-06-17T22:18:31.446Z,87.60
2017-06-17T22:20:59.972Z,87.40
2017-06-17T22:23:28.818Z,87.50
2017-06-17T22:25:57.553Z,87.70
2017-06-17T22:28:26.053Z,87.10
2017-06-17T22:50:02.495Z,86.70
2017-06-17T22:52:31.103Z,85.20
2017-06-17T22:54:59.649Z,86.30
2017-06-17T22:57:28.169Z,86.70
2017-06-17T22:59:56.954Z,86.80
2017-06-17T23:02:25.842Z,86.80
2017-06-17T23:04:54.314Z,87.30
2017-06-17T23:07:23.010Z,87.10
2017-06-17T23:09:51.509Z,87.50
2017-06-17T23:12:21.218Z,88.00
2017-06-17T23:14:50.502Z,89.10
2017-06-17T23:17:19.017Z,88.30
2017-06-17T23:19:48.367Z,88.70
2017-06-17T23:22:16.854Z,88.50
2017-06-17T23:24:45.433Z,88.90
2017-06-17T23:27:14.150Z,89.10
2017-06-17T23:29:42.643Z,89.40
2017-06-17T23:32:11.955Z,90.30
2017-06-17T23:34:41.209Z,90.00
2017-06-17T23:37:09.975Z,89.80
2017-06-17T23:39:38.482Z,90.80
2017-06-17T23:42:06.981Z,90.50
2017-06-17T23:44:35.543Z,90.70
2017-06-17T23:47:04.060Z,90.80
2017-06-17T23:49:32.768Z,91.00
2017-06-17T23:52:02.022Z,91.60
2017-06-17T23:54:30.493Z,90.80
2017-06-17T23:56:58.984Z,90.60
2017-06-17T23:59:27.922Z,90.60
